createdAt,value
2024-05-09T00:01:29.940Z,15.94
2024-05-09T00:05:32.075Z,15.91
2024-05-09T00:09:34.046Z,15.89
2024-05-09T00:13:35.720Z,15.87
2024-05-09T00:17:37.711Z,15.84
2024-05-09T00:21:45.236Z,15.83
2024-05-09T00:25:47.161Z,15.79
2024-05-09T00:29:49.125Z,15.74
2024-05-09T00:33:51.177Z,15.68
2024-05-09T00:37:53.264Z,15.59
2024-05-09T00:41:55.048Z,15.47
2024-05-09T00:45:57.660Z,15.32
2024-05-09T00:49:59.837Z,15.19
2024-05-09T00:54:02.408Z,14.97
2024-05-09T00:58:05.858Z,14.78
2024-05-09T01:02:08.014Z,14.60
2024-05-09T01:06:09.791Z,14.48
2024-05-09T01:10:17.249Z,14.40
2024-05-09T01:14:23.209Z,14.36
2024-05-09T01:18:25.689Z,14.37
2024-05-09T01:22:29.530Z,14.40
2024-05-09T01:26:31.269Z,14.46
2024-05-09T01:30:35.947Z,14.51
2024-05-09T01:34:39.317Z,14.56
2024-05-09T01:38:41.188Z,14.61
2024-05-09T01:42:42.978Z,14.67
2024-05-09T01:50:54.520Z,14.73
2024-05-09T01:54:56.542Z,14.66
2024-05-09T01:58:58.586Z,14.70
2024-05-09T02:03:00.906Z,14.75
2024-05-09T02:07:02.966Z,14.67
2024-05-09T02:11:05.082Z,14.73
2024-05-09T02:15:07.078Z,14.65
2024-05-09T02:19:09.104Z,14.65
2024-05-09T02:23:11.547Z,14.67
2024-05-09T02:27:13.831Z,14.74
2024-05-09T02:31:15.753Z,14.71
2024-05-09T02:35:19.146Z,14.75
2024-05-09T02:39:24.233Z,14.77
2024-05-09T02:43:26.292Z,14.73
2024-05-09T02:51:44.899Z,14.82
2024-05-09T02:55:46.672Z,14.83
2024-05-09T02:59:48.617Z,14.82
2024-05-09T03:03:51.796Z,14.80
2024-05-09T03:07:53.789Z,14.78
2024-05-09T03:11:55.626Z,14.77
2024-05-09T03:16:00.163Z,14.76
2024-05-09T03:20:05.160Z,14.75
2024-05-09T03:24:07.882Z,14.75
2024-05-09T03:28:09.979Z,14.75
2024-05-09T03:32:11.882Z,14.76
2024-05-09T03:36:13.971Z,14.77
2024-05-09T03:40:20.900Z,14.78
2024-05-09T03:44:26.084Z,14.81
2024-05-09T03:48:28.613Z,14.82
2024-05-09T03:52:30.356Z,14.87
2024-05-09T03:56:32.374Z,14.90
2024-05-09T04:00:38.531Z,14.95
2024-05-09T04:04:42.472Z,15.01
2024-05-09T04:08:44.457Z,15.07
2024-05-09T04:12:46.170Z,15.14
2024-05-09T04:16:48.112Z,15.20
2024-05-09T04:20:50.090Z,15.29
2024-05-09T04:24:53.043Z,15.39
2024-05-09T04:28:54.926Z,15.50
2024-05-09T04:32:56.722Z,15.61
2024-05-09T04:36:58.561Z,15.76
2024-05-09T04:41:00.450Z,15.93
2024-05-09T04:45:02.292Z,16.06
2024-05-09T04:49:04.143Z,16.14
2024-05-09T04:53:10.668Z,16.18
2024-05-09T04:57:13.294Z,16.18
2024-05-09T05:01:16.376Z,16.16
2024-05-09T05:05:18.386Z,16.11
2024-05-09T05:09:20.097Z,16.07
2024-05-09T05:13:24.163Z,16.05
2024-05-09T05:17:26.703Z,16.02
2024-05-09T05:21:28.750Z,16.01
2024-05-09T05:25:30.599Z,16.00
2024-05-09T05:29:32.651Z,16.00
2024-05-09T05:33:34.523Z,15.99
2024-05-09T05:37:36.526Z,16.00
2024-05-09T05:41:38.458Z,16.02
2024-05-09T05:45:40.238Z,16.03
2024-05-09T05:49:42.124Z,16.05
2024-05-09T05:53:44.983Z,16.07
2024-05-09T05:57:47.021Z,16.12
2024-05-09T06:01:48.906Z,16.20
2024-05-09T06:05:50.730Z,16.28
2024-05-09T06:09:52.656Z,16.37
2024-05-09T06:13:54.500Z,16.48
2024-05-09T06:17:56.526Z,16.61
2024-05-09T06:22:02.004Z,16.77
2024-05-09T06:26:04.816Z,16.96
2024-05-09T06:30:09.953Z,17.18
2024-05-09T06:34:14.300Z,17.44
2024-05-09T06:38:16.170Z,17.72
2024-05-09T06:42:18.152Z,18.06
2024-05-09T06:46:19.839Z,18.51
2024-05-09T06:50:24.405Z,19.05
2024-05-09T06:54:30.351Z,19.69
2024-05-09T06:58:32.143Z,20.27
2024-05-09T07:02:34.177Z,20.73
2024-05-09T07:06:35.973Z,21.12
2024-05-09T07:10:38.507Z,21.44
2024-05-09T07:19:44.516Z,22.42
2024-05-09T07:23:47.425Z,22.90
2024-05-09T07:27:49.312Z,23.40
2024-05-09T07:31:51.488Z,23.93
2024-05-09T07:35:53.346Z,24.38
2024-05-09T07:39:55.220Z,24.67
2024-05-09T07:43:57.187Z,24.88
2024-05-09T07:53:27.107Z,25.37
2024-05-09T07:56:26.245Z,25.65
2024-05-09T08:00:31.512Z,25.93
2024-05-09T08:04:34.063Z,26.17
2024-05-09T08:08:36.111Z,26.39
2024-05-09T08:12:38.100Z,26.70
2024-05-09T08:16:43.059Z,26.99
2024-05-09T08:20:48.574Z,27.27
2024-05-09T08:24:50.887Z,27.52
2024-05-09T08:28:52.916Z,27.91
2024-05-09T08:32:54.831Z,28.15
2024-05-09T08:36:59.657Z,28.33
2024-05-09T08:41:04.340Z,28.44
2024-05-09T08:45:06.507Z,28.53
2024-05-09T08:49:08.824Z,28.59
2024-05-09T08:53:10.831Z,28.80
2024-05-09T08:57:13.764Z,28.84
2024-05-09T09:01:17.815Z,28.86
2024-05-09T09:05:24.536Z,28.95
2024-05-09T09:09:27.565Z,28.99
2024-05-09T09:13:29.321Z,28.99
2024-05-09T09:17:31.374Z,29.06
2024-05-09T09:21:33.261Z,29.25
2024-05-09T09:25:35.335Z,29.53
2024-05-09T09:29:39.665Z,29.87
2024-05-09T09:34:28.078Z,30.13
2024-05-09T09:38:31.958Z,30.17
2024-05-09T09:42:37.547Z,30.17
2024-05-09T09:46:40.730Z,30.22
2024-05-09T09:50:43.469Z,30.32
2024-05-09T09:54:46.074Z,30.40
2024-05-09T09:58:48.642Z,30.40
2024-05-09T10:02:50.434Z,30.32
2024-05-09T10:06:56.972Z,30.23
2024-05-09T10:10:58.850Z,30.12
2024-05-09T10:15:08.055Z,30.10
2024-05-09T10:19:21.534Z,30.13
2024-05-09T10:23:26.684Z,30.27
2024-05-09T10:27:30.276Z,30.38
2024-05-09T10:31:32.603Z,30.52
2024-05-09T10:35:34.608Z,30.69
2024-05-09T10:39:39.919Z,30.86
2024-05-09T10:43:42.218Z,31.06
2024-05-09T10:47:44.130Z,31.25
2024-05-09T10:51:48.608Z,31.22
2024-05-09T10:56:00.822Z,30.94
2024-05-09T11:00:03.113Z,30.49
2024-05-09T11:04:05.844Z,30.14
2024-05-09T11:08:09.212Z,29.94
2024-05-09T11:12:11.434Z,29.77
2024-05-09T11:16:17.533Z,29.61
2024-05-09T11:20:26.806Z,29.07
2024-05-09T11:24:35.694Z,28.50
2024-05-09T11:28:37.884Z,28.11
2024-05-09T11:32:39.828Z,28.04
2024-05-09T11:36:41.771Z,28.20
2024-05-09T11:40:43.615Z,28.54
2024-05-09T11:44:45.381Z,28.85
2024-05-09T11:48:47.370Z,29.13
2024-05-09T11:52:49.408Z,29.35
2024-05-09T11:56:51.926Z,29.62
2024-05-09T12:00:53.718Z,29.81
2024-05-09T12:04:55.797Z,29.93
2024-05-09T12:08:57.855Z,29.87
2024-05-09T12:12:59.607Z,29.64
2024-05-09T12:17:04.012Z,29.30
2024-05-09T12:21:06.204Z,29.01
2024-05-09T12:25:08.534Z,28.91
2024-05-09T12:29:11.799Z,29.01
2024-05-09T12:33:14.510Z,29.23
2024-05-09T12:37:16.790Z,29.48
2024-05-09T12:41:18.649Z,29.86
2024-05-09T12:45:23.310Z,29.98
2024-05-09T12:49:25.406Z,30.02
2024-05-09T12:53:27.376Z,30.15
2024-05-09T12:57:29.286Z,30.10
2024-05-09T13:01:31.261Z,29.93
2024-05-09T13:05:33.785Z,29.68
2024-05-09T13:09:37.025Z,29.37
2024-05-09T13:13:39.570Z,29.09
2024-05-09T13:17:42.529Z,28.94
2024-05-09T13:21:46.006Z,28.87
2024-05-09T13:40:12.025Z,28.89
2024-05-09T13:44:16.342Z,28.75
2024-05-09T13:48:18.574Z,28.69
2024-05-09T13:52:20.929Z,28.81
2024-05-09T13:56:23.268Z,28.79
2024-05-09T14:09:47.639Z,27.95
2024-05-09T14:13:49.386Z,27.81
2024-05-09T14:17:51.333Z,27.82
2024-05-09T14:21:53.360Z,27.90
2024-05-09T14:25:55.528Z,27.86
2024-05-09T14:29:57.486Z,27.66
2024-05-09T14:33:59.606Z,27.39
2024-05-09T14:38:01.695Z,27.10
2024-05-09T14:42:03.747Z,26.87
2024-05-09T14:46:05.930Z,26.81
2024-05-09T14:55:29.783Z,27.27
2024-05-09T14:59:31.582Z,27.57
2024-05-09T15:04:17.363Z,27.83
2024-05-09T15:08:34.565Z,28.02
2024-05-09T15:12:36.557Z,28.12
2024-05-09T15:16:38.760Z,28.17
2024-05-09T15:21:08.588Z,28.16
2024-05-09T15:25:10.424Z,28.10
2024-05-09T15:29:12.819Z,28.05
2024-05-09T15:33:14.737Z,28.15
2024-05-09T15:37:16.668Z,28.10
2024-05-09T15:41:37.119Z,28.07
2024-05-09T15:45:40.415Z,27.99
2024-05-09T15:49:43.442Z,27.91
2024-05-09T15:53:45.313Z,27.81
2024-05-09T15:57:47.252Z,27.68
2024-05-09T16:06:10.855Z,27.34
2024-05-09T16:10:19.956Z,27.19
2024-05-09T16:14:25.330Z,27.11
2024-05-09T16:18:27.108Z,26.81
2024-05-09T16:22:28.880Z,26.49
2024-05-09T16:26:30.852Z,26.18
2024-05-09T16:30:35.438Z,25.87
2024-05-09T16:34:38.382Z,25.60
2024-05-09T16:38:41.708Z,25.38
2024-05-09T16:42:43.672Z,25.16
2024-05-09T16:46:45.623Z,24.91
2024-05-09T16:50:47.687Z,24.68
2024-05-09T16:54:49.503Z,24.49
2024-05-09T16:58:51.764Z,24.30
2024-05-09T17:02:54.813Z,24.14
2024-05-09T17:06:57.032Z,23.95
2024-05-09T17:10:59.199Z,23.77
2024-05-09T17:15:01.150Z,23.56
2024-05-09T17:19:03.084Z,23.31
2024-05-09T17:23:13.787Z,23.09
2024-05-09T17:27:16.314Z,22.79
2024-05-09T17:31:18.405Z,22.60
2024-05-09T17:40:42.783Z,22.14
2024-05-09T17:44:44.902Z,21.96
2024-05-09T17:48:47.003Z,21.74
2024-05-09T17:52:51.618Z,21.54
2024-05-09T17:56:53.370Z,21.31
2024-05-09T18:00:58.192Z,21.09
2024-05-09T18:05:02.052Z,20.88
2024-05-09T18:09:04.038Z,20.65
2024-05-09T18:13:06.419Z,20.44
2024-05-09T18:17:08.806Z,20.22
2024-05-09T18:21:10.821Z,20.01
2024-05-09T18:25:12.858Z,19.80
2024-05-09T18:29:16.152Z,19.58
2024-05-09T18:33:19.453Z,19.35
2024-05-09T18:37:21.768Z,19.19
2024-05-09T18:41:23.774Z,19.00
2024-05-09T18:45:25.675Z,18.84
2024-05-09T18:49:28.055Z,18.65
2024-05-09T18:53:30.180Z,18.50
2024-05-09T18:57:34.246Z,18.34
2024-05-09T19:01:40.999Z,18.16
2024-05-09T19:05:45.053Z,17.99
2024-05-09T19:09:48.174Z,17.84
2024-05-09T19:13:50.170Z,17.66
2024-05-09T19:17:52.116Z,17.57
2024-05-09T19:21:55.472Z,17.47
2024-05-09T19:25:57.467Z,17.40
2024-05-09T19:30:00.318Z,17.31
2024-05-09T19:34:02.409Z,17.21
2024-05-09T19:38:05.633Z,17.17
2024-05-09T19:42:07.778Z,17.07
2024-05-09T19:46:10.386Z,17.00
2024-05-09T19:50:19.495Z,16.91
2024-05-09T19:54:24.854Z,16.83
2024-05-09T19:58:26.809Z,16.71
2024-05-09T20:02:29.060Z,16.61
2024-05-09T20:06:31.296Z,16.55
2024-05-09T20:10:35.449Z,16.46
2024-05-09T20:14:41.207Z,16.41
2024-05-09T20:18:43.240Z,16.34
2024-05-09T20:22:45.359Z,16.29
2024-05-09T20:26:47.300Z,16.21
2024-05-09T20:30:49.183Z,16.17
2024-05-09T20:34:52.465Z,16.14
2024-05-09T20:38:54.298Z,16.08
2024-05-09T20:42:56.413Z,15.99
2024-05-09T20:46:58.256Z,15.87
2024-05-09T20:51:00.279Z,15.77
2024-05-09T20:55:02.431Z,15.67
2024-05-09T20:59:04.335Z,15.58
2024-05-09T21:03:07.226Z,15.49
2024-05-09T21:07:09.451Z,15.39
2024-05-09T21:11:11.308Z,15.30
2024-05-09T21:15:13.296Z,15.21
2024-05-09T21:19:15.129Z,15.15
2024-05-09T21:23:16.833Z,15.07
2024-05-09T21:27:19.274Z,14.99
2024-05-09T21:31:21.567Z,14.93
2024-05-09T21:35:23.442Z,14.88
2024-05-09T21:39:25.204Z,14.82
2024-05-09T21:43:28.865Z,14.79
2024-05-09T21:47:31.001Z,14.75
2024-05-09T21:51:33.147Z,14.68
2024-05-09T21:55:35.043Z,14.66
2024-05-09T21:59:40.408Z,14.60
2024-05-09T22:03:42.260Z,14.58
2024-05-09T22:07:44.119Z,14.55
2024-05-09T22:11:47.438Z,14.52
2024-05-09T22:15:59.185Z,14.47
2024-05-09T22:20:01.641Z,14.37
2024-05-09T22:24:03.771Z,14.31
2024-05-09T22:28:06.216Z,14.26
2024-05-09T22:32:08.532Z,14.20
2024-05-09T22:36:10.445Z,14.14
2024-05-09T22:40:20.697Z,14.03
2024-05-09T22:44:30.391Z,13.93
2024-05-09T22:48:32.559Z,13.80
2024-05-09T22:52:34.552Z,13.74
2024-05-09T22:56:36.691Z,13.66
2024-05-09T23:00:38.962Z,13.60
2024-05-09T23:04:41.306Z,13.55
2024-05-09T23:08:43.132Z,13.51
2024-05-09T23:12:45.085Z,13.49
2024-05-09T23:16:47.081Z,13.46
2024-05-09T23:20:48.966Z,13.42
2024-05-09T23:24:50.729Z,13.35
2024-05-09T23:28:52.664Z,13.30
2024-05-09T23:32:55.015Z,13.24
2024-05-09T23:36:57.219Z,13.18
2024-05-09T23:40:59.306Z,13.15
2024-05-09T23:45:01.246Z,13.09
2024-05-09T23:49:03.342Z,13.04
2024-05-09T23:53:07.249Z,12.97
2024-05-09T23:57:10.320Z,12.93
